createdAt,value
2023-03-27T00:01:13.279Z,63.90
2023-03-27T00:03:40.964Z,64.10
2023-03-27T00:06:16.723Z,64.28
2023-03-27T00:08:46.439Z,64.27
2023-03-27T00:11:14.567Z,64.56
2023-03-27T00:13:49.032Z,64.59
2023-03-27T00:16:21.829Z,64.70
2023-03-27T00:18:49.117Z,64.65
2023-03-27T00:21:16.478Z,64.95
2023-03-27T00:23:43.303Z,64.71
2023-03-27T00:26:12.084Z,64.79
2023-03-27T00:28:39.203Z,64.77
2023-03-27T00:31:10.843Z,64.60
2023-03-27T00:33:37.681Z,64.39
2023-03-27T00:36:04.798Z,64.63
2023-03-27T00:38:32.320Z,64.54
2023-03-27T00:41:00.012Z,64.96
2023-03-27T00:43:34.784Z,65.12
2023-03-27T00:46:43.528Z,64.95
2023-03-27T00:49:13.611Z,65.04
2023-03-27T00:51:42.676Z,64.90
2023-03-27T00:54:10.044Z,64.95
2023-03-27T00:56:38.778Z,64.96
2023-03-27T00:59:16.257Z,64.96
2023-03-27T01:01:44.717Z,64.95
2023-03-27T01:04:11.947Z,65.16
2023-03-27T01:06:39.857Z,65.15
2023-03-27T01:09:06.572Z,65.10
2023-03-27T01:11:50.038Z,64.96
2023-03-27T01:14:35.287Z,65.01
2023-03-27T01:17:34.818Z,65.02
2023-03-27T01:20:20.951Z,64.79
2023-03-27T01:22:59.717Z,64.78
2023-03-27T01:25:37.873Z,64.83
2023-03-27T01:28:10.971Z,64.89
2023-03-27T01:30:46.600Z,64.84
2023-03-27T01:33:42.856Z,64.92
2023-03-27T01:36:25.029Z,64.93
2023-03-27T01:39:35.886Z,64.93
2023-03-27T01:42:08.822Z,64.92
2023-03-27T01:44:48.459Z,64.75
2023-03-27T01:47:37.792Z,64.81
2023-03-27T01:50:15.327Z,64.77
2023-03-27T01:52:47.755Z,64.72
2023-03-27T01:55:19.544Z,64.67
2023-03-27T01:57:54.321Z,64.63
2023-03-27T02:00:24.266Z,64.83
2023-03-27T02:03:16.595Z,65.02
2023-03-27T02:05:52.898Z,65.15
2023-03-27T02:08:39.763Z,65.27
2023-03-27T02:11:06.935Z,65.24
2023-03-27T02:13:51.570Z,65.43
2023-03-27T02:16:26.759Z,65.16
2023-03-27T02:19:01.757Z,64.98
2023-03-27T02:21:31.355Z,65.00
2023-03-27T02:24:01.970Z,65.29
2023-03-27T02:26:30.420Z,65.28
2023-03-27T02:29:21.838Z,65.52
2023-03-27T02:32:24.192Z,65.44
2023-03-27T02:34:54.112Z,65.62
2023-03-27T02:37:21.509Z,65.61
2023-03-27T02:39:50.792Z,65.82
2023-03-27T02:42:23.374Z,65.67
2023-03-27T02:45:15.738Z,65.60
2023-03-27T02:47:57.182Z,65.61
2023-03-27T02:50:46.657Z,65.80
2023-03-27T02:53:17.863Z,65.79
2023-03-27T02:55:50.596Z,65.63
2023-03-27T02:58:24.762Z,65.50
2023-03-27T03:00:52.214Z,65.57
2023-03-27T03:03:32.149Z,65.36
2023-03-27T03:05:59.743Z,65.00
2023-03-27T03:08:30.389Z,64.79
2023-03-27T03:11:03.439Z,64.89
2023-03-27T03:13:30.312Z,64.94
2023-03-27T03:15:57.664Z,64.47
2023-03-27T03:18:25.176Z,64.50
2023-03-27T03:20:55.578Z,64.06
2023-03-27T03:23:23.508Z,64.07
2023-03-27T03:25:52.747Z,63.93
2023-03-27T03:28:19.753Z,63.52
2023-03-27T03:30:50.383Z,63.75
2023-03-27T03:33:18.301Z,63.44
2023-03-27T03:35:49.686Z,63.44
2023-03-27T03:38:26.592Z,63.67
2023-03-27T03:40:55.409Z,63.35
2023-03-27T03:43:24.435Z,63.31
2023-03-27T03:45:51.298Z,63.30
2023-03-27T03:48:19.332Z,63.63
2023-03-27T03:50:47.350Z,63.44
2023-03-27T03:53:19.387Z,63.65
2023-03-27T03:55:46.555Z,63.70
2023-03-27T03:58:13.589Z,63.45
2023-03-27T04:00:40.366Z,63.64
2023-03-27T04:03:08.998Z,63.41
2023-03-27T04:05:37.530Z,63.42
2023-03-27T04:08:08.648Z,63.51
2023-03-27T04:10:38.702Z,63.47
2023-03-27T04:13:06.692Z,63.21
2023-03-27T04:15:33.742Z,63.13
2023-03-27T04:18:01.260Z,63.53
2023-03-27T04:20:28.590Z,63.39
2023-03-27T04:22:55.831Z,63.48
2023-03-27T04:25:24.493Z,63.40
2023-03-27T04:27:52.076Z,63.35
2023-03-27T04:30:22.410Z,63.44
2023-03-27T04:32:51.368Z,63.39
2023-03-27T04:35:20.107Z,63.31
2023-03-27T04:37:48.349Z,63.18
2023-03-27T04:40:19.529Z,63.10
2023-03-27T04:42:46.413Z,63.29
2023-03-27T04:45:17.309Z,63.30
2023-03-27T04:47:44.479Z,63.14
2023-03-27T04:50:11.730Z,63.05
2023-03-27T04:52:38.658Z,62.85
2023-03-27T04:55:06.213Z,62.75
2023-03-27T04:57:33.767Z,62.52
2023-03-27T05:00:01.974Z,62.45
2023-03-27T05:02:28.860Z,62.53
2023-03-27T05:04:58.678Z,62.42
2023-03-27T05:07:26.669Z,62.16
2023-03-27T05:09:53.517Z,62.37
2023-03-27T05:12:21.430Z,62.42
2023-03-27T05:14:48.695Z,62.25
2023-03-27T05:17:16.620Z,62.37
2023-03-27T05:19:44.835Z,62.50
2023-03-27T05:22:13.910Z,62.45
2023-03-27T05:24:40.748Z,62.53
2023-03-27T05:27:07.546Z,62.46
2023-03-27T05:29:47.472Z,62.42
2023-03-27T05:32:14.820Z,62.33
2023-03-27T05:34:42.432Z,62.35
2023-03-27T05:37:09.427Z,62.36
2023-03-27T05:39:36.983Z,62.32
2023-03-27T05:42:04.160Z,62.17
2023-03-27T05:44:31.292Z,62.36
2023-03-27T05:46:58.988Z,62.32
2023-03-27T05:49:25.746Z,62.13
2023-03-27T05:51:52.769Z,62.12
2023-03-27T05:54:19.659Z,62.07
2023-03-27T05:56:46.661Z,62.23
2023-03-27T05:59:13.455Z,62.15
2023-03-27T06:01:40.454Z,62.06
2023-03-27T06:04:09.304Z,61.85
2023-03-27T06:06:36.625Z,61.88
2023-03-27T06:09:03.917Z,61.66
2023-03-27T06:11:30.881Z,61.74
2023-03-27T06:13:58.750Z,61.49
2023-03-27T06:16:26.107Z,61.52
2023-03-27T06:18:53.199Z,61.51
2023-03-27T06:21:21.016Z,61.47
2023-03-27T06:23:47.923Z,61.59
2023-03-27T06:26:15.627Z,61.28
2023-03-27T06:28:42.672Z,61.43
2023-03-27T06:31:09.539Z,61.08
2023-03-27T06:33:36.361Z,60.82
2023-03-27T06:36:03.278Z,60.56
2023-03-27T06:38:32.781Z,60.75
2023-03-27T06:41:00.151Z,60.93
2023-03-27T06:43:27.028Z,60.84
2023-03-27T06:45:54.246Z,60.56
2023-03-27T06:48:22.585Z,60.44
2023-03-27T06:50:52.380Z,60.38
2023-03-27T06:53:27.434Z,60.51
2023-03-27T06:55:56.643Z,60.39
2023-03-27T06:58:23.981Z,60.40
2023-03-27T07:00:51.366Z,60.55
2023-03-27T07:03:21.613Z,60.25
2023-03-27T07:05:49.677Z,60.31
2023-03-27T07:08:24.470Z,60.39
2023-03-27T07:11:07.984Z,60.22
2023-03-27T07:13:38.512Z,60.19
2023-03-27T07:16:05.941Z,60.28
2023-03-27T07:18:32.813Z,60.39
2023-03-27T07:21:00.146Z,60.18
2023-03-27T07:23:27.095Z,60.08
2023-03-27T07:26:00.513Z,60.21
2023-03-27T07:28:27.365Z,60.05
2023-03-27T07:30:54.176Z,60.01
2023-03-27T07:33:21.688Z,59.86
2023-03-27T07:35:48.790Z,59.88
2023-03-27T07:38:16.741Z,59.77
2023-03-27T07:40:46.178Z,59.79
2023-03-27T07:43:13.822Z,59.82
2023-03-27T07:45:42.098Z,59.65
2023-03-27T07:48:12.079Z,59.59
2023-03-27T07:50:39.166Z,59.63
2023-03-27T07:53:06.559Z,59.61
2023-03-27T07:55:34.547Z,59.71
2023-03-27T07:58:03.351Z,60.04
2023-03-27T08:00:31.553Z,59.85
2023-03-27T08:03:10.098Z,59.86
2023-03-27T08:05:37.945Z,59.63
2023-03-27T08:08:05.548Z,59.71
2023-03-27T08:10:32.716Z,59.81
2023-03-27T08:12:59.589Z,59.67
2023-03-27T08:15:26.528Z,59.77
2023-03-27T08:17:55.457Z,59.69
2023-03-27T08:20:24.095Z,59.63
2023-03-27T08:22:52.799Z,59.34
2023-03-27T08:25:22.630Z,59.25
2023-03-27T08:27:49.942Z,59.29
2023-03-27T08:30:17.490Z,59.05
2023-03-27T08:32:44.926Z,58.93
2023-03-27T08:35:12.400Z,58.86
2023-03-27T08:37:39.860Z,58.80
2023-03-27T08:40:13.897Z,58.75
2023-03-27T08:42:44.021Z,58.55
2023-03-27T08:45:24.863Z,58.47
2023-03-27T08:48:07.314Z,58.42
2023-03-27T08:50:56.867Z,58.20
2023-03-27T08:53:46.270Z,58.24
2023-03-27T08:56:15.123Z,58.22
2023-03-27T08:58:43.792Z,58.14
2023-03-27T09:01:26.501Z,58.08
2023-03-27T09:04:03.054Z,58.21
2023-03-27T09:06:39.768Z,58.09
2023-03-27T09:09:31.361Z,57.84
2023-03-27T09:13:04.312Z,57.74
2023-03-27T09:15:42.245Z,57.56
2023-03-27T09:18:33.336Z,57.67
2023-03-27T09:21:14.608Z,57.35
2023-03-27T09:23:46.825Z,57.34
2023-03-27T09:26:30.683Z,57.07
2023-03-27T09:29:02.948Z,56.92
2023-03-27T09:31:32.496Z,57.01
2023-03-27T09:34:08.158Z,56.81
2023-03-27T09:36:38.755Z,56.81
2023-03-27T09:39:08.283Z,56.76
2023-03-27T09:41:47.843Z,56.67
2023-03-27T09:44:33.345Z,56.46
2023-03-27T09:47:37.617Z,56.51
2023-03-27T09:50:21.074Z,56.64
2023-03-27T09:52:47.961Z,56.65
2023-03-27T09:55:31.734Z,56.58
2023-03-27T09:58:10.461Z,56.52
2023-03-27T10:00:37.322Z,56.43
2023-03-27T10:03:08.178Z,56.37
2023-03-27T10:05:35.285Z,56.04
2023-03-27T10:08:30.356Z,56.05
2023-03-27T10:10:59.101Z,55.87
2023-03-27T10:13:29.784Z,55.69
2023-03-27T10:16:04.584Z,55.87
2023-03-27T10:18:34.515Z,56.02
2023-03-27T10:21:07.554Z,56.01
2023-03-27T10:23:48.841Z,56.12
2023-03-27T10:26:26.034Z,55.91
2023-03-27T10:28:58.484Z,55.81
2023-03-27T10:31:33.939Z,55.72
2023-03-27T10:34:03.453Z,55.42
2023-03-27T10:36:38.481Z,55.19
2023-03-27T10:39:14.716Z,54.85
2023-03-27T10:41:41.797Z,54.92
2023-03-27T10:44:19.278Z,54.71
2023-03-27T10:46:46.713Z,54.40
2023-03-27T10:49:43.785Z,54.31
2023-03-27T10:52:15.161Z,53.66
2023-03-27T10:55:27.219Z,53.58
2023-03-27T10:57:59.460Z,53.29
2023-03-27T11:00:41.068Z,53.10
2023-03-27T11:03:27.519Z,52.91
2023-03-27T11:05:54.594Z,52.35
2023-03-27T11:08:51.451Z,52.21
2023-03-27T11:11:34.248Z,51.78
2023-03-27T11:14:05.438Z,51.38
2023-03-27T11:17:04.246Z,50.84
2023-03-27T11:19:40.614Z,50.26
2023-03-27T11:22:17.202Z,50.28
2023-03-27T11:24:54.586Z,50.41
2023-03-27T11:27:33.807Z,50.36
2023-03-27T11:30:13.117Z,50.51
2023-03-27T11:32:57.073Z,50.16
2023-03-27T11:35:27.761Z,50.28
2023-03-27T11:38:31.602Z,50.03
2023-03-27T11:40:59.119Z,50.46
2023-03-27T11:43:26.169Z,50.50
2023-03-27T11:46:22.788Z,50.05
2023-03-27T11:48:56.875Z,50.18
2023-03-27T11:51:57.573Z,50.08
2023-03-27T11:54:44.540Z,49.97
2023-03-27T11:57:27.053Z,49.82
2023-03-27T12:00:11.241Z,49.36
2023-03-27T12:02:41.036Z,49.07
2023-03-27T12:05:17.147Z,49.06
2023-03-27T12:07:48.205Z,48.70
2023-03-27T12:10:28.952Z,48.68
2023-03-27T12:13:21.562Z,48.52
2023-03-27T12:16:06.508Z,48.30
2023-03-27T12:19:00.910Z,48.14
2023-03-27T12:22:23.464Z,48.61
2023-03-27T12:25:28.750Z,48.51
2023-03-27T12:28:22.506Z,49.14
2023-03-27T12:31:09.638Z,48.88
2023-03-27T12:33:39.256Z,48.99
2023-03-27T12:36:13.654Z,48.92
2023-03-27T12:38:43.009Z,48.68
2023-03-27T12:41:13.864Z,48.30
2023-03-27T12:43:46.242Z,47.40
2023-03-27T12:46:25.412Z,47.40
2023-03-27T12:48:52.856Z,47.12
2023-03-27T12:51:20.544Z,47.20
2023-03-27T12:53:50.391Z,47.48
2023-03-27T12:56:17.091Z,47.67
2023-03-27T12:58:53.150Z,47.79
2023-03-27T13:01:36.316Z,48.16
2023-03-27T13:04:49.900Z,48.28
2023-03-27T13:07:25.652Z,47.47
2023-03-27T13:10:38.632Z,47.22
2023-03-27T13:13:42.999Z,47.43
2023-03-27T13:16:34.535Z,47.06
2023-03-27T13:19:09.880Z,47.11
2023-03-27T13:21:51.917Z,47.08
2023-03-27T13:24:28.340Z,46.82
2023-03-27T13:27:07.866Z,46.78
2023-03-27T13:29:35.836Z,46.77
2023-03-27T13:32:06.144Z,46.25
2023-03-27T13:34:41.701Z,46.33
2023-03-27T13:37:14.121Z,46.21
2023-03-27T13:39:48.246Z,46.08
2023-03-27T13:42:20.862Z,45.82
2023-03-27T13:44:58.213Z,46.06
2023-03-27T13:47:34.063Z,46.10
2023-03-27T13:50:18.996Z,46.04
2023-03-27T13:53:23.902Z,45.26
2023-03-27T13:55:59.645Z,45.21
2023-03-27T13:58:29.365Z,44.95
2023-03-27T14:01:02.233Z,44.93
2023-03-27T14:03:49.031Z,45.03
2023-03-27T14:06:41.848Z,44.82
2023-03-27T14:09:46.282Z,44.44
2023-03-27T14:12:38.142Z,43.81
2023-03-27T14:15:44.414Z,43.54
2023-03-27T14:18:17.034Z,43.87
2023-03-27T14:20:45.917Z,44.13
2023-03-27T14:23:23.409Z,44.28
2023-03-27T14:26:01.944Z,44.16
2023-03-27T14:28:45.728Z,44.17
2023-03-27T14:31:19.342Z,44.42
2023-03-27T14:34:09.755Z,44.58
2023-03-27T14:36:42.103Z,44.72
2023-03-27T14:39:18.217Z,44.72
2023-03-27T14:41:56.292Z,44.77
2023-03-27T14:44:29.746Z,44.85
2023-03-27T14:47:03.921Z,44.99
2023-03-27T14:49:37.435Z,45.11
2023-03-27T14:52:09.143Z,44.99
2023-03-27T14:54:52.258Z,44.83
2023-03-27T14:57:23.110Z,44.90
2023-03-27T14:59:50.037Z,44.56
2023-03-27T15:02:22.990Z,44.17
2023-03-27T15:04:50.351Z,43.99
2023-03-27T15:07:19.965Z,44.11
2023-03-27T15:10:02.617Z,43.81
2023-03-27T15:12:29.554Z,44.04
2023-03-27T15:14:59.551Z,43.94
2023-03-27T15:17:30.841Z,44.00
2023-03-27T15:20:11.340Z,44.08
2023-03-27T15:22:44.520Z,44.38
2023-03-27T15:25:17.717Z,44.43
2023-03-27T15:27:52.866Z,44.52
2023-03-27T15:30:33.500Z,44.68
2023-03-27T15:33:02.322Z,44.73
2023-03-27T15:35:35.575Z,44.71
2023-03-27T15:38:05.018Z,44.72
2023-03-27T15:40:42.955Z,44.51
2023-03-27T15:43:12.716Z,44.72
2023-03-27T15:46:00.055Z,44.68
2023-03-27T15:48:30.351Z,44.67
2023-03-27T15:51:05.373Z,44.81
2023-03-27T15:53:40.114Z,44.59
2023-03-27T15:56:12.978Z,44.37
2023-03-27T15:58:53.855Z,44.35
2023-03-27T16:01:41.292Z,44.36
2023-03-27T16:04:16.631Z,44.55
2023-03-27T16:06:46.849Z,44.18
2023-03-27T16:09:24.396Z,43.93
2023-03-27T16:11:54.579Z,43.99
2023-03-27T16:14:30.492Z,44.16
2023-03-27T16:17:11.668Z,44.05
2023-03-27T16:20:24.710Z,43.94
2023-03-27T16:22:52.782Z,43.84
2023-03-27T16:25:19.933Z,43.99
2023-03-27T16:28:11.434Z,44.00
2023-03-27T16:30:41.146Z,44.00
2023-03-27T16:33:21.647Z,44.13
2023-03-27T16:35:49.735Z,43.97
2023-03-27T16:38:18.193Z,44.24
2023-03-27T16:40:45.839Z,44.01
2023-03-27T16:43:12.696Z,44.03
2023-03-27T16:45:41.369Z,44.02
2023-03-27T16:48:08.693Z,44.39
2023-03-27T16:50:35.707Z,44.31
2023-03-27T16:53:04.179Z,44.62
2023-03-27T16:55:31.249Z,44.62
2023-03-27T16:57:58.348Z,44.50
2023-03-27T17:00:26.793Z,44.77
2023-03-27T17:03:00.317Z,44.70
2023-03-27T17:05:29.414Z,45.25
2023-03-27T17:07:56.314Z,45.47
2023-03-27T17:10:23.719Z,45.32
2023-03-27T17:12:53.945Z,45.38
2023-03-27T17:15:20.971Z,45.70
2023-03-27T17:17:49.024Z,45.70
2023-03-27T17:20:16.425Z,46.02
2023-03-27T17:22:45.320Z,45.89
2023-03-27T17:25:13.260Z,46.19
2023-03-27T17:27:40.765Z,45.78
2023-03-27T17:30:08.468Z,45.72
2023-03-27T17:32:36.110Z,45.68
2023-03-27T17:35:05.104Z,45.85
2023-03-27T17:37:34.068Z,45.85
2023-03-27T17:40:01.192Z,45.98
2023-03-27T17:42:28.811Z,45.96
2023-03-27T17:44:56.086Z,46.13
2023-03-27T17:47:24.013Z,45.94
2023-03-27T17:49:53.340Z,45.96
2023-03-27T17:52:23.458Z,46.05
2023-03-27T17:54:50.818Z,45.94
2023-03-27T17:57:18.518Z,45.87
2023-03-27T17:59:46.517Z,45.97
2023-03-27T18:02:19.798Z,45.85
2023-03-27T18:04:56.566Z,45.71
2023-03-27T18:07:24.716Z,45.88
2023-03-27T18:09:52.830Z,45.66
2023-03-27T18:12:20.173Z,45.60
2023-03-27T18:14:47.525Z,45.51
2023-03-27T18:17:15.915Z,45.78
2023-03-27T18:19:45.230Z,45.79
2023-03-27T18:22:12.749Z,45.90
2023-03-27T18:24:40.519Z,45.70
2023-03-27T18:27:07.885Z,45.59
2023-03-27T18:29:35.694Z,45.15
2023-03-27T18:32:04.943Z,45.29
2023-03-27T18:34:33.066Z,45.13
2023-03-27T18:37:01.595Z,44.99
2023-03-27T18:39:29.582Z,44.88
2023-03-27T18:42:01.992Z,45.22
2023-03-27T18:44:29.762Z,45.17
2023-03-27T18:46:57.678Z,45.18
2023-03-27T18:49:25.740Z,45.23
2023-03-27T18:51:53.343Z,45.37
2023-03-27T18:54:21.377Z,45.43
2023-03-27T18:56:49.374Z,45.12
2023-03-27T18:59:17.237Z,44.96
2023-03-27T19:01:44.598Z,45.01
2023-03-27T19:04:15.049Z,45.16
2023-03-27T19:06:44.275Z,45.32
2023-03-27T19:09:12.063Z,45.50
2023-03-27T19:11:39.939Z,45.48
2023-03-27T19:14:08.620Z,45.63
2023-03-27T19:16:37.980Z,45.40
2023-03-27T19:19:05.135Z,45.69
2023-03-27T19:21:35.803Z,45.52
2023-03-27T19:24:03.032Z,45.62
2023-03-27T19:26:30.581Z,45.71
2023-03-27T19:28:58.448Z,45.86
2023-03-27T19:31:27.976Z,45.83
2023-03-27T19:33:58.405Z,46.02
2023-03-27T19:36:26.390Z,46.15
2023-03-27T19:38:54.374Z,46.02
2023-03-27T19:41:22.179Z,46.33
2023-03-27T19:43:49.834Z,46.26
2023-03-27T19:46:18.075Z,46.29
2023-03-27T19:48:47.955Z,46.28
2023-03-27T19:51:16.034Z,45.93
2023-03-27T19:53:43.854Z,45.99
2023-03-27T19:56:12.161Z,45.90
2023-03-27T19:58:39.900Z,45.84
2023-03-27T20:01:07.652Z,46.06
2023-03-27T20:03:38.854Z,45.96
2023-03-27T20:06:14.693Z,46.01
2023-03-27T20:08:42.848Z,45.89
2023-03-27T20:11:11.185Z,45.92
2023-03-27T20:13:53.199Z,45.89
2023-03-27T20:16:26.675Z,46.18
2023-03-27T20:19:04.195Z,46.06
2023-03-27T20:21:40.260Z,45.88
2023-03-27T20:24:10.316Z,45.89
2023-03-27T20:26:42.645Z,45.82
2023-03-27T20:29:14.042Z,46.05
2023-03-27T20:31:41.446Z,46.06
2023-03-27T20:34:09.245Z,46.13
2023-03-27T20:36:39.469Z,46.14
2023-03-27T20:39:07.892Z,46.08
2023-03-27T20:41:39.355Z,46.12
2023-03-27T20:44:16.447Z,46.43
2023-03-27T20:46:51.903Z,46.64
2023-03-27T20:51:59.884Z,46.95
2023-03-27T20:54:27.496Z,46.65
2023-03-27T20:56:54.335Z,46.56
2023-03-27T20:59:21.691Z,46.64
2023-03-27T21:01:48.521Z,46.82
2023-03-27T21:04:15.413Z,46.71
2023-03-27T21:06:42.818Z,46.80
2023-03-27T21:09:10.127Z,46.70
2023-03-27T21:11:36.954Z,46.64
2023-03-27T21:14:03.690Z,46.86
2023-03-27T21:16:30.722Z,46.87
2023-03-27T21:18:57.550Z,47.08
2023-03-27T21:21:24.396Z,47.07
2023-03-27T21:23:53.886Z,47.17
2023-03-27T21:26:20.918Z,47.23
2023-03-27T21:28:51.621Z,47.35
2023-03-27T21:31:19.713Z,47.26
2023-03-27T21:33:47.164Z,47.33
2023-03-27T21:36:14.142Z,47.38
2023-03-27T21:38:40.963Z,47.30
2023-03-27T21:41:07.995Z,47.39
2023-03-27T21:43:34.902Z,47.51
2023-03-27T21:46:03.710Z,47.88
2023-03-27T21:48:31.355Z,47.77
2023-03-27T21:51:02.790Z,47.72
2023-03-27T21:53:29.724Z,47.76
2023-03-27T21:55:57.657Z,47.68
2023-03-27T21:58:25.281Z,47.87
2023-03-27T22:00:52.504Z,47.88
2023-03-27T22:03:19.264Z,48.11
2023-03-27T22:05:51.614Z,48.21
2023-03-27T22:08:28.157Z,48.43
2023-03-27T22:11:01.545Z,48.53
2023-03-27T22:13:28.329Z,48.73
2023-03-27T22:15:56.268Z,48.86
2023-03-27T22:18:24.008Z,48.93
2023-03-27T22:20:50.987Z,49.05
2023-03-27T22:23:17.761Z,49.20
2023-03-27T22:25:52.286Z,49.35
2023-03-27T22:28:19.363Z,49.45
2023-03-27T22:30:46.210Z,49.37
2023-03-27T22:33:12.928Z,49.44
2023-03-27T22:35:39.762Z,49.46
2023-03-27T22:38:06.681Z,49.58
2023-03-27T22:40:33.472Z,49.57
2023-03-27T22:43:00.413Z,49.76
2023-03-27T22:45:27.159Z,49.81
2023-03-27T22:47:54.039Z,50.01
2023-03-27T22:50:20.820Z,50.23
2023-03-27T22:52:47.604Z,50.20
2023-03-27T22:55:14.460Z,50.47
2023-03-27T22:57:41.216Z,50.72
2023-03-27T23:00:09.163Z,51.57
2023-03-27T23:02:36.014Z,51.26
2023-03-27T23:05:04.206Z,51.24
2023-03-27T23:07:31.740Z,51.24
2023-03-27T23:09:58.500Z,51.47
2023-03-27T23:12:25.264Z,51.35
2023-03-27T23:14:51.974Z,51.46
2023-03-27T23:17:18.803Z,51.50
2023-03-27T23:19:45.635Z,51.59
2023-03-27T23:22:12.417Z,51.62
2023-03-27T23:24:39.116Z,51.67
2023-03-27T23:27:08.398Z,51.50
2023-03-27T23:29:35.417Z,51.53
2023-03-27T23:32:02.271Z,51.67
2023-03-27T23:34:29.130Z,51.46
2023-03-27T23:36:55.874Z,51.53
2023-03-27T23:39:22.644Z,51.61
2023-03-27T23:41:49.413Z,51.87
2023-03-27T23:44:16.127Z,51.81
2023-03-27T23:46:42.899Z,51.76
2023-03-27T23:49:12.645Z,51.82
2023-03-27T23:51:39.366Z,51.94
2023-03-27T23:54:06.139Z,51.91
2023-03-27T23:56:32.910Z,51.86
2023-03-27T23:58:59.662Z,51.90
